createdAt,value
2019-05-22T00:04:06.863Z,92.59
2019-05-22T00:09:16.778Z,92.05
2019-05-22T00:14:23.653Z,91.91
2019-05-22T00:19:30.505Z,91.03
2019-05-22T00:24:37.173Z,92.04
2019-05-22T00:29:44.653Z,92.37
2019-05-22T00:34:49.531Z,91.53
2019-05-22T00:39:55.108Z,90.29
2019-05-22T00:44:59.968Z,91.06
2019-05-22T00:50:10.595Z,90.29
2019-05-22T00:55:17.520Z,89.25
2019-05-22T01:00:28.546Z,90.18
2019-05-22T01:05:35.564Z,89.04
2019-05-22T01:10:43.937Z,89.40
2019-05-22T01:15:51.177Z,90.26
2019-05-22T01:20:59.289Z,90.27
2019-05-22T01:26:05.555Z,91.08
2019-05-22T01:31:13.486Z,92.01
2019-05-22T01:36:21.867Z,90.82
2019-05-22T01:41:30.703Z,89.95
2019-05-22T01:46:39.895Z,89.86
2019-05-22T01:51:46.656Z,89.38
2019-05-22T01:56:52.279Z,89.53
2019-05-22T02:01:57.991Z,89.23
2019-05-22T02:07:04.025Z,90.17
2019-05-22T02:12:16.108Z,90.14
2019-05-22T02:17:24.087Z,89.88
2019-05-22T02:22:29.564Z,89.41
2019-05-22T02:27:35.655Z,89.09
2019-05-22T02:32:41.222Z,89.13
2019-05-22T02:37:47.969Z,89.93
2019-05-22T02:42:53.680Z,89.52
2019-05-22T02:48:00.647Z,89.28
2019-05-22T02:53:09.626Z,89.70
2019-05-22T02:58:16.878Z,90.26
2019-05-22T03:03:21.829Z,91.10
2019-05-22T03:08:58.654Z,91.82
2019-05-22T03:14:09.379Z,91.70
2019-05-22T03:19:17.960Z,91.94
2019-05-22T03:24:23.051Z,91.69
2019-05-22T03:29:33.541Z,91.21
2019-05-22T03:34:39.928Z,92.13
2019-05-22T03:39:46.296Z,90.65
2019-05-22T03:44:53.330Z,90.73
2019-05-22T03:49:58.947Z,91.62
2019-05-22T03:55:07.527Z,91.45
2019-05-22T04:00:19.791Z,90.84
2019-05-22T04:05:25.591Z,90.64
2019-05-22T04:10:34.173Z,90.96
2019-05-22T04:15:40.172Z,90.71
2019-05-22T04:20:46.051Z,91.22
2019-05-22T04:25:53.507Z,91.72
2019-05-22T04:31:00.196Z,92.55
2019-05-22T04:36:10.133Z,90.89
2019-05-22T04:41:14.019Z,90.95
2019-05-22T04:46:19.382Z,90.84
2019-05-22T04:51:27.256Z,90.82
2019-05-22T04:56:32.474Z,90.98
2019-05-22T05:01:37.594Z,90.47
2019-05-22T05:06:43.724Z,90.90
2019-05-22T05:11:49.642Z,91.34
2019-05-22T05:16:54.730Z,93.01
2019-05-22T05:21:59.594Z,94.13
2019-05-22T05:27:05.159Z,94.42
2019-05-22T05:32:11.953Z,93.64
2019-05-22T05:37:18.727Z,92.92
2019-05-22T05:42:23.865Z,91.81
2019-05-22T05:47:28.810Z,92.31
2019-05-22T05:52:34.024Z,92.50
2019-05-22T05:57:45.513Z,92.10
2019-05-22T06:02:56.428Z,91.24
2019-05-22T06:07:59.482Z,90.46
2019-05-22T06:13:05.258Z,91.29
2019-05-22T06:18:35.756Z,92.00
2019-05-22T06:23:45.116Z,91.46
2019-05-22T06:28:52.338Z,91.80
2019-05-22T06:33:58.403Z,92.30
2019-05-22T06:39:05.066Z,94.63
2019-05-22T06:44:34.111Z,95.16
2019-05-22T06:49:40.620Z,94.08
2019-05-22T06:54:45.562Z,94.73
2019-05-22T07:00:11.433Z,92.51
2019-05-22T07:04:59.112Z,91.84
2019-05-22T07:10:06.810Z,90.74
2019-05-22T07:15:20.834Z,91.05
2019-05-22T07:20:28.747Z,89.91
2019-05-22T07:25:35.617Z,87.96
2019-05-22T07:30:40.795Z,89.12
2019-05-22T07:36:07.710Z,87.91
2019-05-22T07:40:53.099Z,86.57
2019-05-22T07:45:59.071Z,87.33
2019-05-22T07:51:05.968Z,87.17
2019-05-22T07:56:12.853Z,86.79
2019-05-22T08:01:18.478Z,86.64
2019-05-22T08:06:23.461Z,87.55
2019-05-22T08:11:39.792Z,87.56
2019-05-22T08:22:29.610Z,86.30
2019-05-22T08:33:17.702Z,86.78
2019-05-22T08:38:28.460Z,86.51
2019-05-22T08:43:56.096Z,86.51
2019-05-22T08:54:35.987Z,86.33
2019-05-22T08:59:40.945Z,86.26
2019-05-22T09:04:46.598Z,85.13
2019-05-22T09:09:51.459Z,84.57
2019-05-22T09:14:56.515Z,84.63
2019-05-22T09:20:01.737Z,85.05
2019-05-22T09:25:10.350Z,85.45
2019-05-22T09:30:15.407Z,84.86
2019-05-22T09:35:20.536Z,85.01
2019-05-22T09:40:25.468Z,85.19
2019-05-22T09:45:30.974Z,84.14
2019-05-22T09:50:36.708Z,84.55
2019-05-22T09:55:41.731Z,84.98
2019-05-22T10:00:46.584Z,84.55
2019-05-22T10:05:51.816Z,83.76
2019-05-22T10:10:56.927Z,83.60
2019-05-22T10:16:02.686Z,82.79
2019-05-22T10:21:09.527Z,83.45
2019-05-22T10:26:14.832Z,85.39
2019-05-22T10:31:21.814Z,84.51
2019-05-22T10:36:26.815Z,83.29
2019-05-22T10:41:32.179Z,83.44
2019-05-22T10:46:37.958Z,83.59
2019-05-22T10:51:42.869Z,84.29
2019-05-22T10:56:47.792Z,84.32
2019-05-22T11:01:52.995Z,83.47
2019-05-22T11:06:58.300Z,83.19
2019-05-22T11:12:04.975Z,83.35
2019-05-22T11:17:10.861Z,83.51
2019-05-22T11:22:17.489Z,83.02
2019-05-22T11:27:22.772Z,82.60
2019-05-22T11:32:27.998Z,82.94
2019-05-22T11:37:33.238Z,83.67
2019-05-22T11:42:39.665Z,83.55
2019-05-22T11:47:48.159Z,84.00
2019-05-22T11:52:53.365Z,83.88
2019-05-22T11:57:58.328Z,84.25
2019-05-22T12:03:04.548Z,84.17
2019-05-22T12:08:13.468Z,85.99
2019-05-22T12:13:25.224Z,87.07
2019-05-22T12:24:26.209Z,86.57
2019-05-22T12:29:24.672Z,86.30
2019-05-22T12:34:30.054Z,85.28
2019-05-22T12:39:35.024Z,85.23
2019-05-22T12:44:41.204Z,84.87
2019-05-22T12:49:46.416Z,84.37
2019-05-22T12:54:53.053Z,85.47
2019-05-22T13:00:02.191Z,85.11
2019-05-22T13:05:08.394Z,84.54
2019-05-22T13:10:14.718Z,84.72
2019-05-22T13:15:19.998Z,83.95
2019-05-22T13:20:41.889Z,83.75
2019-05-22T13:25:37.139Z,84.69
2019-05-22T13:30:42.964Z,84.82
2019-05-22T13:35:47.967Z,85.44
2019-05-22T13:40:54.301Z,85.46
2019-05-22T13:45:59.520Z,86.42
2019-05-22T13:51:06.081Z,87.14
2019-05-22T14:01:51.900Z,89.29
2019-05-22T14:06:57.286Z,89.94
2019-05-22T14:12:02.623Z,90.05
2019-05-22T14:17:07.869Z,89.95
2019-05-22T14:22:12.761Z,88.94
2019-05-22T14:27:17.715Z,89.12
2019-05-22T14:32:29.811Z,87.58
2019-05-22T14:37:30.547Z,88.49
2019-05-22T14:42:35.483Z,87.32
2019-05-22T14:47:40.444Z,87.34
2019-05-22T14:52:45.418Z,87.34
2019-05-22T14:57:50.470Z,87.07
2019-05-22T15:02:58.486Z,86.10
2019-05-22T15:08:02.259Z,86.20
2019-05-22T15:13:08.484Z,84.84
2019-05-22T15:18:13.676Z,85.51
2019-05-22T15:23:19.072Z,84.71
2019-05-22T15:28:26.938Z,85.14
2019-05-22T15:33:32.065Z,83.52
2019-05-22T15:38:39.692Z,82.99
2019-05-22T15:43:51.663Z,83.18
2019-05-22T15:48:54.478Z,83.49
2019-05-22T15:54:02.205Z,82.89
2019-05-22T15:59:10.258Z,83.03
2019-05-22T16:04:18.433Z,82.71
2019-05-22T16:09:25.574Z,82.82
2019-05-22T16:14:31.607Z,82.48
2019-05-22T16:19:41.738Z,81.66
2019-05-22T16:24:46.713Z,81.96
2019-05-22T16:29:56.602Z,81.85
2019-05-22T16:35:12.035Z,81.03
2019-05-22T16:40:22.224Z,80.65
2019-05-22T16:45:28.451Z,80.32
2019-05-22T16:50:37.792Z,79.78
2019-05-22T16:55:51.381Z,79.69
2019-05-22T17:01:26.474Z,78.96
2019-05-22T17:06:51.521Z,79.02
2019-05-22T17:11:57.491Z,78.96
2019-05-22T17:17:26.571Z,78.48
2019-05-22T17:22:32.037Z,78.15
2019-05-22T17:27:37.797Z,77.85
2019-05-22T17:32:45.522Z,78.14
2019-05-22T17:37:50.712Z,78.12
2019-05-22T17:42:56.802Z,78.69
2019-05-22T17:48:03.157Z,79.20
2019-05-22T17:53:08.519Z,79.61
2019-05-22T17:58:13.800Z,79.17
2019-05-22T18:03:20.124Z,79.48
2019-05-22T18:08:45.419Z,79.13
2019-05-22T18:13:59.901Z,78.47
2019-05-22T18:19:05.540Z,77.86
2019-05-22T18:24:10.778Z,77.32
2019-05-22T18:29:15.877Z,76.59
2019-05-22T18:34:20.776Z,76.51
2019-05-22T18:39:25.722Z,75.81
2019-05-22T18:44:30.670Z,74.80
2019-05-22T18:49:35.648Z,74.53
2019-05-22T18:54:40.521Z,73.54
2019-05-22T18:59:45.993Z,73.19
2019-05-22T19:04:51.700Z,73.00
2019-05-22T19:09:56.550Z,72.72
2019-05-22T19:15:01.623Z,72.61
2019-05-22T19:20:17.672Z,71.97
2019-05-22T19:25:22.637Z,71.84
2019-05-22T19:30:28.272Z,71.40
2019-05-22T19:35:33.296Z,71.14
2019-05-22T19:40:38.302Z,70.86
2019-05-22T19:45:43.968Z,71.22
2019-05-22T19:50:49.811Z,70.86
2019-05-22T19:55:54.852Z,70.84
2019-05-22T20:00:59.831Z,70.82
2019-05-22T20:06:05.582Z,70.37
2019-05-22T20:11:10.525Z,70.24
2019-05-22T20:16:15.898Z,70.33
2019-05-22T20:21:21.429Z,70.52
2019-05-22T20:26:26.382Z,69.94
2019-05-22T20:31:31.286Z,70.08
2019-05-22T20:36:36.609Z,69.72
2019-05-22T20:41:41.635Z,69.84
2019-05-22T20:46:46.650Z,70.20
2019-05-22T20:51:52.931Z,70.55
2019-05-22T20:56:59.675Z,69.97
2019-05-22T21:02:06.634Z,69.96
2019-05-22T21:07:12.060Z,69.93
2019-05-22T21:12:19.717Z,69.90
2019-05-22T21:17:25.439Z,69.91
2019-05-22T21:22:32.425Z,70.42
2019-05-22T21:27:39.970Z,70.32
2019-05-22T21:32:45.421Z,70.38
2019-05-22T21:37:50.566Z,70.68
2019-05-22T21:42:57.282Z,70.81
2019-05-22T21:48:02.333Z,70.87
2019-05-22T21:53:10.702Z,70.89
2019-05-22T21:58:16.412Z,70.81
2019-05-22T22:03:25.274Z,71.36
2019-05-22T22:08:30.912Z,71.58
2019-05-22T22:13:37.541Z,71.53
2019-05-22T22:18:43.718Z,71.41
2019-05-22T22:23:48.762Z,71.43
2019-05-22T22:28:53.706Z,71.61
2019-05-22T22:34:04.217Z,71.80
2019-05-22T22:39:12.124Z,71.79
2019-05-22T22:44:17.059Z,71.82
2019-05-22T22:49:24.084Z,71.62
2019-05-22T22:54:30.464Z,71.70
2019-05-22T22:59:36.430Z,71.44
2019-05-22T23:04:43.060Z,71.26
2019-05-22T23:09:48.825Z,71.63
2019-05-22T23:14:57.641Z,71.64
2019-05-22T23:20:03.416Z,71.93
2019-05-22T23:25:09.429Z,72.01
2019-05-22T23:30:14.333Z,71.68
2019-05-22T23:35:21.305Z,72.36
2019-05-22T23:40:29.795Z,72.19
2019-05-22T23:45:35.625Z,72.15
2019-05-22T23:50:40.873Z,72.81
2019-05-22T23:55:48.792Z,72.84
